MV Causeway Supplier — ZR2426 — position and weather

sailwx.info

Track history (hours):
 
Tides and Currents Weather Stations Pressure Air Temp Water Temp Dewpoint Dewpoint Depression Visibility Wind Speed Wind Dir Waves Ship Positions

MV Causeway Supplier

Last reported at 2016-Jul-30 17:34 UTC. Time now 2016-Jul-31 01:44 UTC.
Position S 29°52' E 031°02'.

Length 22 m; draft 2.7 m.

Type: . MMSI: 601041200.

Date/timePositionNaut miles runAvg speedWind from/ knotsBaromVisibWave heightAir tempDewpointWater temp
2016-Jul-30 17:34S 29°52' E 031°02'6 6.3
2016-Jul-30 16:33S 29°48' E 031°08'1 1.4
2016-Jul-30 15:33S 29°48' E 031°09'2 2.2
2016-Jul-30 14:34S 29°48' E 031°12'4 4.2
2016-Jul-30 13:33S 29°50' E 031°08'6 6.4
2016-Jul-30 12:33S 29°52' E 031°01'1 1.1
2016-Jul-30 11:33S 29°53' E 031°00'1 0.0
2016-Jul-29 10:25S 29°54' E 031°00'0 0.0
2016-Jul-29 09:33S 29°54' E 031°00'0 0.0
2016-Jul-29 08:33S 29°54' E 031°00'0 0.0
2016-Jul-29 07:33S 29°54' E 031°00'0 0.0
2016-Jul-29 06:33S 29°54' E 031°00'0 0.0
2016-Jul-28 19:06S 29°54' E 031°00'2 3.7
2016-Jul-28 18:34S 29°52' E 031°01'7 7.3
2016-Jul-28 17:33S 29°50' E 031°09'0 0.3
2016-Jul-28 16:34S 29°50' E 031°09'1 1.5
2016-Jul-28 15:33S 29°48' E 031°09'1 0.5
2016-Jul-28 14:33S 29°48' E 031°08'1 1.0
2016-Jul-28 13:33S 29°49' E 031°09'0 0.3
2016-Jul-28 12:33S 29°49' E 031°09'1 1.0
2016-Jul-28 11:33S 29°50' E 031°08'3 2.7
2016-Jul-28 10:33S 29°51' E 031°06'4 4.4
2016-Jul-28 09:33S 29°52' E 031°01'2 2.0
2016-Jul-28 08:33S 29°54' E 031°00'0 0.0
2016-Jul-28 07:33S 29°54' E 031°00'0 0.0
2016-Jul-28 06:33S 29°54' E 031°00'0 0.0
2016-Jul-26 11:29S 29°54' E 031°00'0 0.0
2016-Jul-26 10:33S 29°54' E 031°00'0 0.0
2016-Jul-26 09:33S 29°54' E 031°00'0 0.0
2016-Jul-26 08:33S 29°54' E 031°00'0 0.0
2016-Jul-26 07:33S 29°54' E 031°00'0 0.0
2016-Jul-25 08:15S 29°54' E 031°00'0 0.0
2016-Jul-25 07:33S 29°54' E 031°00'0 0.0
2016-Jul-25 06:33S 29°54' E 031°00'0 0.0
2016-Jul-25 05:34S 29°54' E 031°00'0 0.0
2016-Jul-25 04:33S 29°54' E 031°00'0 0.0
2016-Jul-25 03:33S 29°54' E 031°00'0 0.0
2016-Jul-24 11:30S 29°54' E 031°00'2 2.2
2016-Jul-24 10:33S 29°52' E 031°01'7 7.3
2016-Jul-24 09:34S 29°49' E 031°08'7 7.2
2016-Jul-24 08:34S 29°45' E 031°15'0 0.1
2016-Jul-24 07:34S 29°45' E 031°15'0 0.1
2016-Jul-24 06:34S 29°45' E 031°15'1 1.3
2016-Jul-24 05:34S 29°45' E 031°14'9 9.0
2016-Jul-24 04:34S 29°51' E 031°06'4 4.3
2016-Jul-24 03:34S 29°52' E 031°01'1 0.0
2016-Jul-22 16:14S 29°53' E 031°00'1 2.0
2016-Jul-22 15:34S 29°52' E 031°01'7 7.3
2016-Jul-22 14:34S 29°50' E 031°09'1 1.1
2016-Jul-22 13:34S 29°50' E 031°10'0 0.5
2016-Jul-22 12:34S 29°51' E 031°10'4 4.3
2016-Jul-22 11:34S 29°51' E 031°05'5 1.5
2016-Jul-22 08:30S 29°54' E 031°00'0 0.0
2016-Jul-22 07:34S 29°54' E 031°00'  
Track history (hours):
 
Tides and Currents Weather Stations Pressure Air Temp Water Temp Dewpoint Dewpoint Depression Visibility Wind Speed Wind Dir Waves Ship Positions

MV Causeway Supplier

Last reported at 2016-Jul-30 17:34 UTC. Time now 2016-Jul-31 01:44 UTC.
Position S 29°52' E 031°02'.

Length 22 m; draft 2.7 m.

Type: . MMSI: 601041200.

Date/timePositionNaut miles runAvg speedWind from/ knotsBaromVisibWave heightAir tempDewpointWater temp
2016-Jul-30 17:34S 29°52' E 031°02'6 6.3
2016-Jul-30 16:33S 29°48' E 031°08'1 1.4
2016-Jul-30 15:33S 29°48' E 031°09'2 2.2
2016-Jul-30 14:34S 29°48' E 031°12'4 4.2
2016-Jul-30 13:33S 29°50' E 031°08'6 6.4
2016-Jul-30 12:33S 29°52' E 031°01'1 1.1
2016-Jul-30 11:33S 29°53' E 031°00'1 0.0
2016-Jul-29 10:25S 29°54' E 031°00'0 0.0
2016-Jul-29 09:33S 29°54' E 031°00'0 0.0
2016-Jul-29 08:33S 29°54' E 031°00'0 0.0
2016-Jul-29 07:33S 29°54' E 031°00'0 0.0
2016-Jul-29 06:33S 29°54' E 031°00'0 0.0
2016-Jul-28 19:06S 29°54' E 031°00'2 3.7
2016-Jul-28 18:34S 29°52' E 031°01'7 7.3
2016-Jul-28 17:33S 29°50' E 031°09'0 0.3
2016-Jul-28 16:34S 29°50' E 031°09'1 1.5
2016-Jul-28 15:33S 29°48' E 031°09'1 0.5
2016-Jul-28 14:33S 29°48' E 031°08'1 1.0
2016-Jul-28 13:33S 29°49' E 031°09'0 0.3
2016-Jul-28 12:33S 29°49' E 031°09'1 1.0
2016-Jul-28 11:33S 29°50' E 031°08'3 2.7
2016-Jul-28 10:33S 29°51' E 031°06'4 4.4
2016-Jul-28 09:33S 29°52' E 031°01'2 2.0
2016-Jul-28 08:33S 29°54' E 031°00'0 0.0
2016-Jul-28 07:33S 29°54' E 031°00'0 0.0
2016-Jul-28 06:33S 29°54' E 031°00'0 0.0
2016-Jul-26 11:29S 29°54' E 031°00'0 0.0
2016-Jul-26 10:33S 29°54' E 031°00'0 0.0
2016-Jul-26 09:33S 29°54' E 031°00'0 0.0
2016-Jul-26 08:33S 29°54' E 031°00'0 0.0
2016-Jul-26 07:33S 29°54' E 031°00'0 0.0
2016-Jul-25 08:15S 29°54' E 031°00'0 0.0
2016-Jul-25 07:33S 29°54' E 031°00'0 0.0
2016-Jul-25 06:33S 29°54' E 031°00'0 0.0
2016-Jul-25 05:34S 29°54' E 031°00'0 0.0
2016-Jul-25 04:33S 29°54' E 031°00'0 0.0
2016-Jul-25 03:33S 29°54' E 031°00'0 0.0
2016-Jul-24 11:30S 29°54' E 031°00'2 2.2
2016-Jul-24 10:33S 29°52' E 031°01'7 7.3
2016-Jul-24 09:34S 29°49' E 031°08'7 7.2
2016-Jul-24 08:34S 29°45' E 031°15'0 0.1
2016-Jul-24 07:34S 29°45' E 031°15'0 0.1
2016-Jul-24 06:34S 29°45' E 031°15'1 1.3
2016-Jul-24 05:34S 29°45' E 031°14'9 9.0
2016-Jul-24 04:34S 29°51' E 031°06'4 4.3
2016-Jul-24 03:34S 29°52' E 031°01'1 0.0
2016-Jul-22 16:14S 29°53' E 031°00'1 2.0
2016-Jul-22 15:34S 29°52' E 031°01'7 7.3
2016-Jul-22 14:34S 29°50' E 031°09'1 1.1
2016-Jul-22 13:34S 29°50' E 031°10'0 0.5
2016-Jul-22 12:34S 29°51' E 031°10'4 4.3
2016-Jul-22 11:34S 29°51' E 031°05'5 1.5
2016-Jul-22 08:30S 29°54' E 031°00'0 0.0
2016-Jul-22 07:34S 29°54' E 031°00'  

Dump ship's entire track history